Paradise Inn, WA (98398)

3:40 PM PST on December 08, 2016 (GMT -0800)
| | Change Station
Active Advisory: Winter Weather Advisory

Elev -9999 ft 0.00 °N, 0.00 °E | Updated 14 minutes ago

Snow
Snow
°F
Feels Like °F
N
Wind Variable Wind from North
Gusts mph

Today
High -- | Low -- °F
--% Chance of Precip.
Yesterday
High -- | Low -- °F
Precip. -- in
Pressure 29.94 in
Visibility 10.0 miles
Clouds Few 4800 ft
Mostly Cloudy 5500 ft
Overcast 12000 ft
Dew Point Not available.
Humidity Not available.
Rainfall --
Snow Depth Not available.
7:44 AM 4:20 PM
Waxing Gibbous, 68% visible
METAR KTCM 082258Z AUTO 35005KT 10SM FEW048 BKN055 OVC120 02/M09 A2992 RMK AO2 SLP139 T00211086 $
Pressure 29.94 in
Visibility 10.0 miles
Clouds Few 4800 ft
Mostly Cloudy 5500 ft
Overcast 12000 ft
Dew Point Not available.
Humidity Not available.
Rainfall --
Snow Depth Not available.
7:44 AM 4:20 PM
Waxing Gibbous, 68% visible
METAR KTCM 082258Z AUTO 35005KT 10SM FEW048 BKN055 OVC120 02/M09 A2992 RMK AO2 SLP139 T00211086 $

10-Day Weather Forecast

Almanac

Astronomy

Dec. 08, 2016 Rise Set
Actual Time
Civil Twilight
Nautical Twilight
Astronomical Twilight
Moon
Length of Visible Light
Length of Day
Tomorrow will be .
, % of the Moon is Illuminated

Today's Extremes

State Highs State Lows

Community

WunderPhotos

Upload Photos

1,956,277 photos uploaded!

WunderBlog® & News

Nearby

Air Quality

  Air Quality AQ Index Pollutant
Not available.

Snow Depth

Station Depth Elevation

Earthquake Activity

City Distance Mag. Time & Date
Minimum magnitude displayed is 2.5.

Coastal Water Temperatures

Place Temperature

Stations

Nearby Weather Stations

Station Location Temp. Windchill Dew Point Humidity Wind Precip. Elev Updated Type
                   

Watches & Warnings

Winter Weather Advisory
Issued: 12:25 PM PST Dec. 8, 2016 – National Weather Service

... Winter Weather Advisory remains in effect from 4 PM this
afternoon to 8 am PST Friday...

* timing... a weather system will move from south to north over
western Washington tonight. With cold air in place...
precipitation will start as snow tonight before changing to rain
by daybreak Friday.

* Accumulation... snowfall accumulations of 1 to 3 inches are
expected across most of The Lowlands.

* Main impact... travel will affected as roadway surface conditions
may become slippery.

Precautionary/preparedness actions...

People planning on travel late Thursday afternoon and night should
expect winter driving conditions.